Time;durP1;ratioP1;P1;durP2;ratioP2;P2;SDS_P1;SDS_P2;PMS_P1;PMS_P2;Temp;Humidity;BMP_temperature;BMP_pressure;BME280_temperature;BME280_humidity;BME280_pressure;Samples;Min_cycle;Max_cycle;Signal;HPM_P1;HPM_P2
2022/02/13 00:00:44;;;;;;;;;;;13.70;55.00;;;;;;5163295;27;19911;-70
2022/02/13 00:03:09;;;;;;;;;;;13.70;55.00;;;;;;5163276;27;19993;-70
2022/02/13 00:05:35;;;;;;;;;;;13.60;55.00;;;;;;5163081;27;19921;-71
2022/02/13 00:08:00;;;;;;;;;;;13.60;55.00;;;;;;5162824;27;20257;-71
2022/02/13 00:10:26;;;;;;;;;;;13.60;54.80;;;;;;5163074;27;19903;-70
2022/02/13 00:12:52;;;;;;;;;;;13.70;54.90;;;;;;5163017;27;19915;-71
2022/02/13 00:15:17;;;;;;;;;;;13.70;54.90;;;;;;5162986;27;20195;-70
2022/02/13 00:17:43;;;;;;;;;;;13.70;54.90;;;;;;5162433;27;19934;-70
2022/02/13 00:20:09;;;;;;;;;;;13.70;54.70;;;;;;5162880;27;19959;-70
2022/02/13 00:22:34;;;;;;;;;;;13.70;55.00;;;;;;5162838;27;19944;-71
2022/02/13 00:25:00;;;;;;;;;;;13.70;55.00;;;;;;5162787;27;19943;-70
2022/02/13 00:27:27;;;;;;;;;;;13.60;55.00;;;;;;5162707;27;19907;-70
2022/02/13 00:29:53;;;;;;;;;;;13.60;55.00;;;;;;5162616;27;19987;-70
2022/02/13 00:32:19;;;;;;;;;;;13.70;55.60;;;;;;5162626;27;19915;-70
2022/02/13 00:34:45;;;;;;;;;;;13.60;55.00;;;;;;5162919;27;19911;-70
2022/02/13 00:37:11;;;;;;;;;;;13.60;54.90;;;;;;5162509;27;20191;-71
2022/02/13 00:39:36;;;;;;;;;;;13.70;54.80;;;;;;5162548;27;19911;-70
2022/02/13 00:42:02;;;;;;;;;;;13.60;54.80;;;;;;5162386;27;19911;-70
2022/02/13 00:44:28;;;;;;;;;;;13.60;54.90;;;;;;5162504;27;19915;-70
2022/02/13 00:46:53;;;;;;;;;;;13.60;54.80;;;;;;5162269;27;19941;-70
2022/02/13 00:49:19;;;;;;;;;;;13.60;54.90;;;;;;5162405;27;19925;-70
2022/02/13 00:51:45;;;;;;;;;;;13.60;54.90;;;;;;5162303;27;19918;-70
2022/02/13 00:54:10;;;;;;;;;;;13.60;54.90;;;;;;5162230;27;19933;-71
2022/02/13 00:56:36;;;;;;;;;;;13.60;54.80;;;;;;5143620;27;19910;-70
2022/02/13 00:59:02;;;;;;;;;;;13.60;55.00;;;;;;5162105;27;19915;-70
2022/02/13 01:01:27;;;;;;;;;;;13.60;55.00;;;;;;5162171;27;20200;-70
2022/02/13 01:03:56;;;;;;;;;;;13.60;55.00;;;;;;5162041;27;20131;-70
2022/02/13 01:06:21;;;;;;;;;;;13.60;54.80;;;;;;5161963;27;19914;-70
2022/02/13 01:08:47;;;;;;;;;;;13.60;55.00;;;;;;5161961;27;20115;-70
2022/02/13 01:11:12;;;;;;;;;;;13.60;54.90;;;;;;5162007;27;19957;-70
2022/02/13 01:13:38;;;;;;;;;;;13.60;55.00;;;;;;5161968;27;19918;-70
2022/02/13 01:16:04;;;;;;;;;;;13.60;54.80;;;;;;5161858;27;20134;-70
2022/02/13 01:18:29;;;;;;;;;;;13.60;54.80;;;;;;5161800;27;19917;-71
2022/02/13 01:20:56;;;;;;;;;;;13.60;54.80;;;;;;5161827;27;19978;-70
2022/02/13 01:23:21;;;;;;;;;;;13.60;54.70;;;;;;5161822;27;20191;-70
2022/02/13 01:25:47;;;;;;;;;;;13.60;54.90;;;;;;5161711;27;19915;-70
2022/02/13 01:28:12;;;;;;;;;;;13.50;54.80;;;;;;5160792;27;20108;-71
2022/02/13 01:30:38;;;;;;;;;;;13.60;54.90;;;;;;5161741;27;19978;-70
2022/02/13 01:33:04;;;;;;;;;;;13.50;54.80;;;;;;5161697;27;20265;-70
2022/02/13 01:35:30;;;;;;;;;;;13.60;55.00;;;;;;5161665;27;19911;-71
2022/02/13 01:37:56;;;;;;;;;;;13.60;54.90;;;;;;5161665;27;19942;-70
2022/02/13 01:40:22;;;;;;;;;;;13.60;54.80;;;;;;5161515;27;19911;-70
2022/02/13 01:42:47;;;;;;;;;;;13.60;54.80;;;;;;5161560;27;19911;-70
2022/02/13 01:45:13;;;;;;;;;;;13.60;54.90;;;;;;5161463;27;19915;-70
2022/02/13 01:47:39;;;;;;;;;;;13.50;54.80;;;;;;5161488;27;20223;-70
2022/02/13 01:50:07;;;;;;;;;;;13.60;54.80;;;;;;5161524;27;19911;-71
2022/02/13 01:52:32;;;;;;;;;;;13.60;54.80;;;;;;5161426;27;20101;-70
2022/02/13 01:54:58;;;;;;;;;;;13.50;54.80;;;;;;5161491;27;19911;-69
2022/02/13 01:57:25;;;;;;;;;;;13.50;54.80;;;;;;5161472;27;20223;-70
2022/02/13 01:59:51;;;;;;;;;;;13.50;54.90;;;;;;5161368;27;19911;-69
2022/02/13 02:02:16;;;;;;;;;;;13.50;54.60;;;;;;5143030;27;19972;-70
2022/02/13 02:04:42;;;;;;;;;;;13.50;54.70;;;;;;5161060;27;19911;-70
2022/02/13 02:07:08;;;;;;;;;;;13.50;54.90;;;;;;5161205;27;19915;-70
2022/02/13 02:09:33;;;;;;;;;;;13.50;54.70;;;;;;5161413;27;19922;-70
2022/02/13 02:12:05;;;;;;;;;;;13.50;54.80;;;;;;5161277;27;19909;-70
2022/02/13 02:14:31;;;;;;;;;;;13.50;54.80;;;;;;5161290;27;19994;-69
2022/02/13 02:16:57;;;;;;;;;;;13.50;54.80;;;;;;5161329;27;20199;-70
2022/02/13 02:19:22;;;;;;;;;;;13.50;54.80;;;;;;5161240;27;19911;-69
2022/02/13 02:21:48;;;;;;;;;;;13.50;54.70;;;;;;5161213;27;19918;-70
2022/02/13 02:24:14;;;;;;;;;;;13.50;54.80;;;;;;5161190;27;19941;-70
2022/02/13 02:26:40;;;;;;;;;;;13.50;54.60;;;;;;5161057;27;19915;-70
2022/02/13 02:29:06;;;;;;;;;;;13.50;54.70;;;;;;5161206;27;19909;-70
2022/02/13 02:31:32;;;;;;;;;;;13.50;54.70;;;;;;5161130;27;19911;-70
2022/02/13 02:33:58;;;;;;;;;;;13.50;54.80;;;;;;5161112;27;19938;-70
2022/02/13 02:36:23;;;;;;;;;;;13.50;54.80;;;;;;5161087;27;19946;-70
2022/02/13 02:38:49;;;;;;;;;;;13.50;54.80;;;;;;5161114;27;19903;-70
2022/02/13 02:41:15;;;;;;;;;;;13.50;54.70;;;;;;5164331;27;19991;-69
2022/02/13 02:43:41;;;;;;;;;;;13.50;54.70;;;;;;5164890;27;19915;-70
2022/02/13 02:46:07;;;;;;;;;;;13.50;54.50;;;;;;5164739;27;19978;-69
2022/02/13 02:48:36;;;;;;;;;;;13.50;54.70;;;;;;5164755;27;20229;-69
2022/02/13 02:51:01;;;;;;;;;;;13.50;54.60;;;;;;5164733;27;19948;-69
2022/02/13 02:53:28;;;;;;;;;;;13.50;54.70;;;;;;5164696;27;20145;-69
2022/02/13 02:55:54;;;;;;;;;;;13.50;54.70;;;;;;5164684;27;20137;-69
2022/02/13 02:58:20;;;;;;;;;;;13.50;54.70;;;;;;5164599;27;19978;-70
2022/02/13 03:00:45;;;;;;;;;;;13.50;54.50;;;;;;5164755;27;19911;-70
2022/02/13 03:03:11;;;;;;;;;;;13.40;54.20;;;;;;5164474;27;20214;-70
2022/02/13 03:05:37;;;;;;;;;;;13.40;54.30;;;;;;5164385;27;19915;-70
2022/02/13 03:08:02;;;;;;;;;;;13.40;54.50;;;;;;5164243;27;20331;-70
2022/02/13 03:10:28;;;;;;;;;;;13.40;54.60;;;;;;5164420;27;19911;-69
2022/02/13 03:12:54;;;;;;;;;;;13.40;54.90;;;;;;5145778;27;19911;-70
2022/02/13 03:15:19;;;;;;;;;;;13.50;55.00;;;;;;5164299;27;19910;-68
2022/02/13 03:17:45;;;;;;;;;;;13.40;54.80;;;;;;5164154;27;19911;-69
2022/02/13 03:20:11;;;;;;;;;;;13.50;54.90;;;;;;5164130;27;19978;-70
2022/02/13 03:22:36;;;;;;;;;;;13.50;54.80;;;;;;5164054;27;19911;-69
2022/02/13 03:25:03;;;;;;;;;;;13.50;54.70;;;;;;5145488;27;19974;-69
2022/02/13 03:27:29;;;;;;;;;;;13.50;54.80;;;;;;5163928;27;19947;-70
2022/02/13 03:29:55;;;;;;;;;;;13.50;54.40;;;;;;5164009;27;19911;-69
2022/02/13 03:32:20;;;;;;;;;;;13.50;54.50;;;;;;5163949;27;19918;-70
2022/02/13 03:34:46;;;;;;;;;;;13.50;54.60;;;;;;5163911;27;19910;-69
2022/02/13 03:37:12;;;;;;;;;;;13.40;54.70;;;;;;5163875;27;19987;-70
2022/02/13 03:39:38;;;;;;;;;;;13.50;54.60;;;;;;5163826;27;20223;-70
2022/02/13 03:42:05;;;;;;;;;;;13.40;55.00;;;;;;5163799;27;19915;-70
2022/02/13 03:44:30;;;;;;;;;;;13.40;54.50;;;;;;5163690;27;20271;-70
2022/02/13 03:46:56;;;;;;;;;;;13.40;54.20;;;;;;5163519;27;19914;-69
2022/02/13 03:49:22;;;;;;;;;;;13.40;54.10;;;;;;5163569;27;19915;-69
2022/02/13 03:51:48;;;;;;;;;;;13.40;54.00;;;;;;5162674;27;19911;-69
2022/02/13 03:54:14;;;;;;;;;;;13.30;54.30;;;;;;5163552;27;19969;-70
2022/02/13 03:56:39;;;;;;;;;;;13.40;54.60;;;;;;5163486;27;20423;-70
2022/02/13 03:59:05;;;;;;;;;;;13.40;54.80;;;;;;5163598;27;19978;-70
2022/02/13 04:01:31;;;;;;;;;;;13.40;54.80;;;;;;5163337;27;19911;-70
2022/02/13 04:03:57;;;;;;;;;;;13.40;54.80;;;;;;5163293;27;19925;-70
2022/02/13 04:06:22;;;;;;;;;;;13.40;54.80;;;;;;5163195;27;19915;-69
2022/02/13 04:08:48;;;;;;;;;;;13.40;54.60;;;;;;5163017;27;19930;-70
2022/02/13 04:11:14;;;;;;;;;;;13.40;54.40;;;;;;5163202;27;19918;-70
2022/02/13 04:13:41;;;;;;;;;;;13.40;54.40;;;;;;5163124;27;20097;-70
2022/02/13 04:16:06;;;;;;;;;;;13.30;54.20;;;;;;5163059;27;19930;-70
2022/02/13 04:18:32;;;;;;;;;;;13.30;54.60;;;;;;5163001;27;20161;-69
2022/02/13 04:20:58;;;;;;;;;;;13.40;54.70;;;;;;5163015;27;19911;-70
2022/02/13 04:23:23;;;;;;;;;;;13.40;54.60;;;;;;5144307;27;19911;-70
2022/02/13 04:25:49;;;;;;;;;;;13.40;54.70;;;;;;5162821;27;19918;-70
2022/02/13 04:28:14;;;;;;;;;;;13.40;54.60;;;;;;5144190;27;19952;-70
2022/02/13 04:30:40;;;;;;;;;;;13.40;54.70;;;;;;5162831;27;19911;-70
2022/02/13 04:33:05;;;;;;;;;;;13.40;54.50;;;;;;5162769;27;19903;-70
2022/02/13 04:35:33;;;;;;;;;;;13.30;54.20;;;;;;5162675;27;20262;-69
2022/02/13 04:37:58;;;;;;;;;;;13.30;54.00;;;;;;5162614;27;19943;-70
2022/02/13 04:40:24;;;;;;;;;;;13.30;54.10;;;;;;5162623;27;19903;-70
2022/02/13 04:42:50;;;;;;;;;;;13.30;55.00;;;;;;5162558;27;20016;-71
2022/02/13 04:45:16;;;;;;;;;;;13.30;54.80;;;;;;5162537;27;20099;-69
2022/02/13 04:47:42;;;;;;;;;;;13.30;54.50;;;;;;5162384;27;19923;-70
2022/02/13 04:50:08;;;;;;;;;;;13.30;54.00;;;;;;5143816;27;19910;-69
2022/02/13 04:52:34;;;;;;;;;;;13.20;53.40;;;;;;5162440;27;19921;-69
2022/02/13 04:54:59;;;;;;;;;;;13.10;53.60;;;;;;5162419;27;19903;-70
2022/02/13 04:57:26;;;;;;;;;;;13.10;53.80;;;;;;5162238;27;19937;-70
2022/02/13 04:59:52;;;;;;;;;;;13.10;54.20;;;;;;5162224;27;20207;-70
2022/02/13 05:02:19;;;;;;;;;;;13.10;54.60;;;;;;5162108;27;19952;-71
2022/02/13 05:04:45;;;;;;;;;;;13.20;54.70;;;;;;5162152;27;20076;-70
2022/02/13 05:07:10;;;;;;;;;;;13.30;54.70;;;;;;5161826;27;19922;-71
2022/02/13 05:09:36;;;;;;;;;;;13.30;54.40;;;;;;5162094;27;19906;-70
2022/02/13 05:12:02;;;;;;;;;;;13.30;54.40;;;;;;5161927;27;19911;-70
2022/02/13 05:14:27;;;;;;;;;;;13.30;54.30;;;;;;5161956;27;19918;-70
2022/02/13 05:16:53;;;;;;;;;;;13.30;54.20;;;;;;5143236;27;20085;-71
2022/02/13 05:19:19;;;;;;;;;;;13.20;53.20;;;;;;5161899;27;19911;-70
2022/02/13 05:21:45;;;;;;;;;;;13.10;53.60;;;;;;5161834;27;19911;-70
2022/02/13 05:24:10;;;;;;;;;;;13.10;53.70;;;;;;5161876;27;19915;-71
2022/02/13 05:26:36;;;;;;;;;;;13.10;53.90;;;;;;5161709;27;19914;-71
2022/02/13 05:29:02;;;;;;;;;;;13.00;53.70;;;;;;5161710;27;20255;-70
2022/02/13 05:31:30;;;;;;;;;;;13.00;53.70;;;;;;5161717;27;19903;-70
2022/02/13 05:34:00;;;;;;;;;;;12.90;53.90;;;;;;5161753;27;19911;-70
2022/02/13 05:36:25;;;;;;;;;;;12.90;54.00;;;;;;5161779;27;19911;-69
2022/02/13 05:38:51;;;;;;;;;;;13.00;54.70;;;;;;5161672;27;19972;-70
2022/02/13 05:41:17;;;;;;;;;;;12.90;54.20;;;;;;5161643;27;19949;-69
2022/02/13 05:43:43;;;;;;;;;;;13.00;54.10;;;;;;5161558;27;20450;-70
2022/02/13 05:46:09;;;;;;;;;;;13.10;54.10;;;;;;5161578;27;19915;-69
2022/02/13 05:48:34;;;;;;;;;;;13.00;53.80;;;;;;5161618;27;19964;-70
2022/02/13 05:51:00;;;;;;;;;;;13.00;53.90;;;;;;5161542;27;19911;-70
2022/02/13 05:53:26;;;;;;;;;;;13.00;54.30;;;;;;5161539;27;19910;-70
2022/02/13 05:55:51;;;;;;;;;;;13.00;54.10;;;;;;5161506;27;20203;-70
2022/02/13 05:58:17;;;;;;;;;;;13.00;54.00;;;;;;5161481;27;19911;-69
2022/02/13 06:00:43;;;;;;;;;;;13.00;53.80;;;;;;5161451;27;20107;-70
2022/02/13 06:03:09;;;;;;;;;;;13.00;53.90;;;;;;5161544;27;19938;-70
2022/02/13 06:05:35;;;;;;;;;;;13.00;53.80;;;;;;5161380;27;19911;-70
2022/02/13 06:08:01;;;;;;;;;;;12.90;53.80;;;;;;5161201;27;19915;-70
2022/02/13 06:10:26;;;;;;;;;;;13.00;53.80;;;;;;5161380;27;19911;-71
2022/02/13 06:12:52;;;;;;;;;;;12.90;53.80;;;;;;5161423;27;19915;-70
2022/02/13 06:15:17;;;;;;;;;;;12.90;53.90;;;;;;5163253;27;20250;-70
2022/02/13 06:17:43;;;;;;;;;;;12.90;53.90;;;;;;5165400;27;19915;-69
2022/02/13 06:20:09;;;;;;;;;;;12.90;53.90;;;;;;5165424;27;19911;-71
2022/02/13 06:22:34;;;;;;;;;;;12.90;53.90;;;;;;5165313;27;19911;-70
2022/02/13 06:25:00;;;;;;;;;;;12.90;54.40;;;;;;5165314;27;20106;-70
2022/02/13 06:27:26;;;;;;;;;;;12.90;54.20;;;;;;5165207;27;19923;-70
2022/02/13 06:29:51;;;;;;;;;;;12.90;54.10;;;;;;5165237;27;20195;-70
2022/02/13 06:32:17;;;;;;;;;;;13.00;54.20;;;;;;5146603;27;19911;-69
2022/02/13 06:34:43;;;;;;;;;;;13.00;53.80;;;;;;5146532;27;19952;-70
2022/02/13 06:37:08;;;;;;;;;;;12.90;53.60;;;;;;5165162;27;19918;-70
2022/02/13 06:39:35;;;;;;;;;;;12.90;53.70;;;;;;5165076;27;20221;-70
2022/02/13 06:42:01;;;;;;;;;;;12.90;53.80;;;;;;5164899;27;19911;-71
2022/02/13 06:44:26;;;;;;;;;;;12.90;53.80;;;;;;5164951;27;19969;-70
2022/02/13 06:46:52;;;;;;;;;;;12.80;53.80;;;;;;5164820;27;19915;-70
2022/02/13 06:49:18;;;;;;;;;;;12.80;53.80;;;;;;5164848;27;19942;-69
2022/02/13 06:51:43;;;;;;;;;;;12.90;53.90;;;;;;5164775;27;19918;-70
2022/02/13 06:54:09;;;;;;;;;;;12.80;53.90;;;;;;5164729;27;19949;-69
2022/02/13 06:56:35;;;;;;;;;;;12.80;53.90;;;;;;5164679;27;19911;-70
2022/02/13 06:59:02;;;;;;;;;;;12.80;53.90;;;;;;5164703;27;19926;-70
2022/02/13 07:01:27;;;;;;;;;;;12.90;54.30;;;;;;5164705;27;20203;-70
2022/02/13 07:03:53;;;;;;;;;;;12.90;54.80;;;;;;5164621;27;19918;-70
2022/02/13 07:06:18;;;;;;;;;;;13.10;54.60;;;;;;5164452;27;19915;-70
2022/02/13 07:08:44;;;;;;;;;;;13.10;54.60;;;;;;5164339;27;19926;-70
2022/02/13 07:11:10;;;;;;;;;;;13.20;54.00;;;;;;5164444;27;20028;-70
2022/02/13 07:13:35;;;;;;;;;;;13.20;53.80;;;;;;5164346;27;19912;-69
2022/02/13 07:16:01;;;;;;;;;;;13.20;54.00;;;;;;5164348;27;19903;-70
2022/02/13 07:18:26;;;;;;;;;;;13.10;53.30;;;;;;5164259;27;19914;-70
2022/02/13 07:20:52;;;;;;;;;;;13.00;53.20;;;;;;5164210;27;19970;-69
2022/02/13 07:23:18;;;;;;;;;;;12.90;53.50;;;;;;5164157;27;19918;-69
2022/02/13 07:25:43;;;;;;;;;;;12.90;53.70;;;;;;5163388;27;19915;-69
2022/02/13 07:30:54;;;;;;;;;;;12.90;53.60;;;;;;5164086;27;19918;-70
2022/02/13 07:33:19;;;;;;;;;;;13.00;54.10;;;;;;5164035;27;20001;-69
2022/02/13 07:35:45;;;;;;;;;;;13.10;54.30;;;;;;5164046;27;19979;-70
2022/02/13 07:38:11;;;;;;;;;;;13.20;54.40;;;;;;5163883;27;19910;-70
2022/02/13 07:40:37;;;;;;;;;;;13.20;54.30;;;;;;5163886;27;19911;-70
2022/02/13 07:43:03;;;;;;;;;;;13.30;54.30;;;;;;5163836;27;20303;-69
2022/02/13 07:45:29;;;;;;;;;;;13.30;54.20;;;;;;5163667;27;19911;-69
2022/02/13 07:47:54;;;;;;;;;;;13.30;54.30;;;;;;5163724;27;20222;-70
2022/02/13 07:50:20;;;;;;;;;;;13.40;54.10;;;;;;5163593;27;19934;-70
2022/02/13 07:52:45;;;;;;;;;;;13.40;53.90;;;;;;5163634;27;19974;-70
2022/02/13 07:55:14;;;;;;;;;;;13.40;53.80;;;;;;5145081;27;19912;-70
2022/02/13 07:57:41;;;;;;;;;;;13.40;53.70;;;;;;5163592;27;19907;-70
2022/02/13 08:00:09;;;;;;;;;;;13.30;53.60;;;;;;5163451;27;19911;-70
2022/02/13 08:02:36;;;;;;;;;;;13.40;53.60;;;;;;5144829;27;19911;-70
2022/02/13 08:05:02;;;;;;;;;;;13.40;53.60;;;;;;5163405;27;19903;-70
2022/02/13 08:07:28;;;;;;;;;;;13.40;53.50;;;;;;5163046;27;20559;-70
2022/02/13 08:09:53;;;;;;;;;;;13.40;53.60;;;;;;5163236;27;19918;-70
2022/02/13 08:12:19;;;;;;;;;;;13.30;53.50;;;;;;5163247;27;20194;-70
2022/02/13 08:14:44;;;;;;;;;;;13.30;53.80;;;;;;5163139;27;19918;-70
2022/02/13 08:17:10;;;;;;;;;;;13.30;53.60;;;;;;5163115;27;19911;-69
2022/02/13 08:19:36;;;;;;;;;;;13.30;53.70;;;;;;5163129;27;19904;-69
2022/02/13 08:22:03;;;;;;;;;;;13.30;53.80;;;;;;5163121;27;19911;-70
2022/02/13 08:24:28;;;;;;;;;;;13.30;53.80;;;;;;5163052;27;19911;-70
2022/02/13 08:26:54;;;;;;;;;;;13.40;53.80;;;;;;5163029;27;19914;-71
2022/02/13 08:29:19;;;;;;;;;;;13.30;53.70;;;;;;5162912;27;19911;-70
2022/02/13 08:31:45;;;;;;;;;;;13.40;53.70;;;;;;5162848;27;19974;-69
2022/02/13 08:34:11;;;;;;;;;;;13.40;53.60;;;;;;5162787;27;19943;-70
2022/02/13 08:36:36;;;;;;;;;;;13.30;53.80;;;;;;5162840;27;20088;-70
2022/02/13 08:39:02;;;;;;;;;;;13.30;53.70;;;;;;5162394;27;19911;-69
2022/02/13 08:41:28;;;;;;;;;;;13.30;53.80;;;;;;5162810;27;19911;-69
2022/02/13 08:43:53;;;;;;;;;;;13.30;53.80;;;;;;5162680;27;19918;-70
2022/02/13 08:46:19;;;;;;;;;;;13.40;53.80;;;;;;5162578;27;20245;-69
2022/02/13 08:48:45;;;;;;;;;;;13.40;53.80;;;;;;5162525;27;19918;-69
2022/02/13 08:51:11;;;;;;;;;;;13.40;53.80;;;;;;5162583;27;19912;-69
2022/02/13 08:53:37;;;;;;;;;;;13.40;53.80;;;;;;5162398;27;19948;-70
2022/02/13 08:56:03;;;;;;;;;;;13.40;53.70;;;;;;5162395;27;19904;-70
2022/02/13 08:58:28;;;;;;;;;;;13.40;53.80;;;;;;5162436;27;19946;-70
2022/02/13 09:00:56;;;;;;;;;;;13.40;53.70;;;;;;5162383;27;19918;-69
2022/02/13 09:03:21;;;;;;;;;;;13.40;53.60;;;;;;5143816;27;19918;-69
2022/02/13 09:05:47;;;;;;;;;;;13.40;53.50;;;;;;5162198;27;19907;-69
2022/02/13 09:08:13;;;;;;;;;;;13.40;53.80;;;;;;5162030;27;19923;-69
2022/02/13 09:10:38;;;;;;;;;;;13.30;53.90;;;;;;5162274;27;20096;-69
2022/02/13 09:13:04;;;;;;;;;;;13.30;53.50;;;;;;5162167;27;20148;-69
2022/02/13 09:15:30;;;;;;;;;;;13.30;53.20;;;;;;5143555;27;19911;-70
2022/02/13 09:17:56;;;;;;;;;;;13.30;53.20;;;;;;5143497;27;20085;-70
2022/02/13 09:20:21;;;;;;;;;;;13.40;53.40;;;;;;5162102;27;19917;-69
2022/02/13 09:22:47;;;;;;;;;;;13.40;53.70;;;;;;5162093;27;19903;-70
2022/02/13 09:25:13;;;;;;;;;;;13.40;53.50;;;;;;5161978;27;19918;-70
2022/02/13 09:27:38;;;;;;;;;;;13.40;53.40;;;;;;5161926;27;19919;-69
2022/02/13 09:30:04;;;;;;;;;;;13.40;54.00;;;;;;5161942;27;19995;-69
2022/02/13 09:32:30;;;;;;;;;;;13.40;54.00;;;;;;5161903;27;19911;-69
2022/02/13 09:34:56;;;;;;;;;;;13.40;53.60;;;;;;5161914;27;19987;-70
2022/02/13 09:37:23;;;;;;;;;;;13.40;53.60;;;;;;5161842;27;19948;-70
2022/02/13 09:39:49;;;;;;;;;;;13.40;53.80;;;;;;5161846;27;19994;-70
2022/02/13 09:42:18;;;;;;;;;;;13.40;54.00;;;;;;5161822;27;19911;-69
2022/02/13 09:44:43;;;;;;;;;;;13.40;53.90;;;;;;5161770;27;19915;-71
2022/02/13 09:47:09;;;;;;;;;;;13.40;53.80;;;;;;5161702;27;19938;-71
2022/02/13 09:49:35;;;;;;;;;;;13.40;54.10;;;;;;5162496;27;19911;-69
2022/02/13 09:52:01;;;;;;;;;;;13.40;54.10;;;;;;5166069;27;20199;-70
2022/02/13 09:54:27;;;;;;;;;;;13.40;53.90;;;;;;5166083;27;19911;-70
2022/02/13 09:57:59;;;;;;;;;;;13.40;53.30;;;;;;5166014;27;19986;-70
2022/02/13 09:59:57;;;;;;;;;;;13.50;53.30;;;;;;5165672;27;19916;-70
2022/02/13 10:02:37;;;;;;;;;;;13.50;53.30;;;;;;5165905;27;19918;-70
2022/02/13 10:05:04;;;;;;;;;;;13.50;53.80;;;;;;5165887;27;19933;-69
2022/02/13 10:07:33;;;;;;;;;;;13.50;53.60;;;;;;5165643;27;19983;-70
2022/02/13 10:10:00;;;;;;;;;;;13.50;53.40;;;;;;5165838;27;19982;-70
2022/02/13 10:12:52;;;;;;;;;;;13.50;53.20;;;;;;5165746;27;19978;-69
2022/02/13 10:15:20;;;;;;;;;;;13.50;53.30;;;;;;5160594;27;20194;-69
2022/02/13 10:17:55;;;;;;;;;;;13.50;53.60;;;;;;5165638;27;19970;-69
2022/02/13 10:20:31;;;;;;;;;;;13.50;53.90;;;;;;5165533;27;20230;-70
2022/02/13 10:23:02;;;;;;;;;;;13.50;54.00;;;;;;5165577;27;19999;-69
2022/02/13 10:25:27;;;;;;;;;;;13.50;53.90;;;;;;5165531;27;19903;-69
2022/02/13 10:27:53;;;;;;;;;;;13.50;54.10;;;;;;5165351;27;19915;-69
2022/02/13 10:30:35;;;;;;;;;;;13.50;54.10;;;;;;5165383;27;20142;-69
2022/02/13 10:33:13;;;;;;;;;;;13.50;54.10;;;;;;5165314;27;19911;-69
2022/02/13 10:35:39;;;;;;;;;;;13.50;54.10;;;;;;5165328;27;19918;-69
2022/02/13 10:38:04;;;;;;;;;;;13.50;54.00;;;;;;5165301;27;19911;-69
2022/02/13 10:40:31;;;;;;;;;;;13.50;54.10;;;;;;5165499;27;20108;-69
2022/02/13 10:43:07;;;;;;;;;;;13.50;54.00;;;;;;5165176;27;19986;-69
2022/02/13 10:45:34;;;;;;;;;;;13.50;54.00;;;;;;5165012;27;19917;-71
2022/02/13 10:48:01;;;;;;;;;;;13.50;53.30;;;;;;5165031;27;19907;-70
2022/02/13 10:50:31;;;;;;;;;;;13.50;53.30;;;;;;5165002;27;19982;-69
2022/02/13 10:52:59;;;;;;;;;;;13.60;53.60;;;;;;5164957;27;19911;-70
2022/02/13 10:55:25;;;;;;;;;;;13.60;53.40;;;;;;5164909;27;19943;-70
2022/02/13 10:57:51;;;;;;;;;;;13.60;53.50;;;;;;5164888;27;20197;-70
2022/02/13 11:00:17;;;;;;;;;;;13.60;53.80;;;;;;5164559;27;19912;-70
2022/02/13 11:02:47;;;;;;;;;;;13.60;54.20;;;;;;5164736;27;20216;-70
2022/02/13 11:05:13;;;;;;;;;;;13.60;53.60;;;;;;5164732;27;19903;-70
2022/02/13 11:07:47;;;;;;;;;;;13.60;53.90;;;;;;5164455;27;20157;-69
2022/02/13 11:10:15;;;;;;;;;;;13.60;54.00;;;;;;5164657;27;19903;-70
2022/02/13 11:12:42;;;;;;;;;;;13.60;53.90;;;;;;5164584;27;19956;-70
2022/02/13 11:15:15;;;;;;;;;;;13.60;54.00;;;;;;5164564;27;20083;-69
2022/02/13 11:17:41;;;;;;;;;;;13.60;53.70;;;;;;5164479;27;20203;-70
2022/02/13 11:20:10;;;;;;;;;;;13.60;53.70;;;;;;5164427;27;19911;-70
2022/02/13 11:22:36;;;;;;;;;;;13.60;53.70;;;;;;5164378;27;19911;-70
2022/02/13 11:25:03;;;;;;;;;;;13.60;54.10;;;;;;5164335;27;19934;-69
2022/02/13 11:27:49;;;;;;;;;;;13.70;53.60;;;;;;5164199;27;19922;-70
2022/02/13 11:30:35;;;;;;;;;;;13.70;53.80;;;;;;5164122;27;19948;-71
2022/02/13 11:33:00;;;;;;;;;;;13.70;54.20;;;;;;5164036;27;20156;-71
2022/02/13 11:35:46;;;;;;;;;;;13.70;54.20;;;;;;5164111;27;19910;-70
2022/02/13 11:38:11;;;;;;;;;;;13.70;54.20;;;;;;5163956;27;20421;-70
2022/02/13 11:40:38;;;;;;;;;;;13.70;54.30;;;;;;5163866;27;19951;-69
2022/02/13 11:43:07;;;;;;;;;;;13.70;54.10;;;;;;5163945;27;19939;-69
2022/02/13 11:45:43;;;;;;;;;;;13.70;54.20;;;;;;5163799;27;19915;-70
2022/02/13 11:48:27;;;;;;;;;;;13.70;54.00;;;;;;5163914;27;19911;-69
2022/02/13 11:50:54;;;;;;;;;;;13.80;54.20;;;;;;5163806;27;20349;-70
2022/02/13 11:53:23;;;;;;;;;;;13.70;54.10;;;;;;5163736;27;19909;-69
2022/02/13 11:55:50;;;;;;;;;;;13.70;54.10;;;;;;5163761;27;20152;-70
2022/02/13 11:58:18;;;;;;;;;;;13.80;53.80;;;;;;5163685;27;19903;-69
2022/02/13 12:00:51;;;;;;;;;;;13.70;54.10;;;;;;5163564;27;19911;-70
2022/02/13 12:03:28;;;;;;;;;;;13.80;54.00;;;;;;5163660;27;20253;-70
2022/02/13 12:06:03;;;;;;;;;;;13.80;54.00;;;;;;5163401;27;19915;-70
2022/02/13 12:08:29;;;;;;;;;;;13.80;54.10;;;;;;5163271;27;20123;-69
2022/02/13 12:11:05;;;;;;;;;;;13.80;54.00;;;;;;5163431;27;19983;-69
2022/02/13 12:13:30;;;;;;;;;;;13.80;54.30;;;;;;5162606;27;19911;-69
2022/02/13 12:16:00;;;;;;;;;;;13.80;54.10;;;;;;5163280;27;19995;-68
2022/02/13 12:18:27;;;;;;;;;;;13.80;54.10;;;;;;5163298;27;20207;-70
2022/02/13 12:20:57;;;;;;;;;;;13.80;54.00;;;;;;5163079;27;20417;-69
2022/02/13 12:23:23;;;;;;;;;;;13.80;54.00;;;;;;5163108;27;20187;-69
2022/02/13 12:25:49;;;;;;;;;;;13.80;54.20;;;;;;5163087;27;19918;-69
2022/02/13 12:28:17;;;;;;;;;;;13.80;54.00;;;;;;5163070;27;20199;-69
2022/02/13 12:30:49;;;;;;;;;;;13.80;54.20;;;;;;5162907;27;19915;-69
2022/02/13 12:33:17;;;;;;;;;;;13.80;54.30;;;;;;5162762;27;20092;-70
2022/02/13 12:35:43;;;;;;;;;;;13.80;54.20;;;;;;5162816;27;19943;-70
2022/02/13 12:38:09;;;;;;;;;;;13.80;54.20;;;;;;5162845;27;19918;-69
2022/02/13 12:40:37;;;;;;;;;;;13.80;54.30;;;;;;5162785;27;19911;-69
2022/02/13 12:43:04;;;;;;;;;;;13.80;54.40;;;;;;5162730;27;19946;-70
2022/02/13 12:45:31;;;;;;;;;;;13.80;54.40;;;;;;5162609;27;19911;-69
2022/02/13 12:47:58;;;;;;;;;;;13.90;54.50;;;;;;5162561;27;19914;-69
2022/02/13 12:50:28;;;;;;;;;;;13.90;54.40;;;;;;5162518;27;20211;-69
2022/02/13 12:53:13;;;;;;;;;;;13.90;54.50;;;;;;5143890;27;19923;-70
2022/02/13 12:55:39;;;;;;;;;;;13.90;54.40;;;;;;5162515;27;19935;-70
2022/02/13 12:58:05;;;;;;;;;;;13.90;54.40;;;;;;5162385;27;19946;-70
2022/02/13 13:00:32;;;;;;;;;;;13.90;54.30;;;;;;5162299;27;19903;-69
2022/02/13 13:03:05;;;;;;;;;;;14.00;54.10;;;;;;5162331;27;19948;-70
2022/02/13 13:05:51;;;;;;;;;;;14.00;54.20;;;;;;5162255;27;19918;-69
2022/02/13 13:08:24;;;;;;;;;;;14.00;54.10;;;;;;5161510;27;20096;-70
2022/02/13 13:10:52;;;;;;;;;;;13.90;54.10;;;;;;5162139;27;19977;-70
2022/02/13 13:13:19;;;;;;;;;;;13.90;54.30;;;;;;5162085;27;19943;-69
2022/02/13 13:15:53;;;;;;;;;;;13.90;54.50;;;;;;5143422;27;19911;-70
2022/02/13 13:18:37;;;;;;;;;;;14.00;54.80;;;;;;5162089;27;19911;-70
2022/02/13 13:21:23;;;;;;;;;;;14.00;54.40;;;;;;5161950;27;19975;-70
2022/02/13 13:24:04;;;;;;;;;;;14.00;54.40;;;;;;5161883;27;19911;-70
2022/02/13 13:26:38;;;;;;;;;;;14.00;54.30;;;;;;5161780;27;19915;-70
2022/02/13 13:29:16;;;;;;;;;;;14.00;54.40;;;;;;5143223;27;20145;-70
2022/02/13 13:32:01;;;;;;;;;;;14.00;54.20;;;;;;5161808;27;19922;-69
2022/02/13 13:34:28;;;;;;;;;;;14.00;54.50;;;;;;5161699;27;19947;-70
2022/02/13 13:36:54;;;;;;;;;;;14.10;54.50;;;;;;5161736;27;20000;-69
2022/02/13 13:39:34;;;;;;;;;;;14.10;54.40;;;;;;5161663;27;20124;-70
2022/02/13 13:42:13;;;;;;;;;;;14.10;54.40;;;;;;5161700;27;19918;-71
2022/02/13 13:44:38;;;;;;;;;;;14.10;54.30;;;;;;5161657;27;19923;-70
2022/02/13 13:47:04;;;;;;;;;;;14.10;54.00;;;;;;5161533;27;20296;-69
2022/02/13 13:49:30;;;;;;;;;;;14.10;54.10;;;;;;5161635;27;19911;-70
2022/02/13 13:51:55;;;;;;;;;;;14.10;54.40;;;;;;5161606;27;19934;-70
2022/02/13 13:54:21;;;;;;;;;;;14.10;54.40;;;;;;5161444;27;19903;-69
2022/02/13 13:56:46;;;;;;;;;;;14.10;54.50;;;;;;5161474;27;19911;-70
2022/02/13 13:59:12;;;;;;;;;;;14.10;54.30;;;;;;5161556;27;20191;-70
2022/02/13 14:01:41;;;;;;;;;;;14.10;54.10;;;;;;5161450;27;19911;-69
2022/02/13 14:04:11;;;;;;;;;;;14.10;54.20;;;;;;5161396;27;20203;-70
2022/02/13 14:06:42;;;;;;;;;;;14.20;54.20;;;;;;5160998;27;19950;-71
2022/02/13 14:09:12;;;;;;;;;;;14.20;54.20;;;;;;5161333;27;19966;-70
2022/02/13 14:11:40;;;;;;;;;;;14.20;54.30;;;;;;5161385;27;19903;-70
2022/02/13 14:14:06;;;;;;;;;;;14.20;54.40;;;;;;5161420;27;19911;-70
2022/02/13 14:16:31;;;;;;;;;;;14.30;54.40;;;;;;5161395;27;19938;-70
2022/02/13 14:18:57;;;;;;;;;;;14.30;54.20;;;;;;5161289;27;20206;-70